Odenton, Maryland
Current Conditions -  °F | °C
As of 5:30 AM on Thursday 27 Nov 2014 (Local Time) from KFME Reporting Station
Overcast Overcast  
Wind Chill: 32°   Ceiling: 6500
Heat Index: 32°   Visibility: 2.5mi
Dew Point: 32°   Wind: 0mph
Humidity: 100%   Direction: NA
Pressure: 30.04"   Gusts: NA
Location:  39.08°N, 76.69°W
Report Text: KFME 271030Z AUTO 00000KT 2 1/2SM BKN065 OVC080 00/00 A3004 RMK AO1
Loading
Personal Weather Stations






























Interactive Weather Map New forecast layout! Learn more

10-Day Weather Forecast

Advertisements
Track Severe Weather on mobile